createdAt,value
2022-09-20T00:01:21.920Z,101157.03
2022-09-20T00:03:52.523Z,101152.91
2022-09-20T00:06:21.902Z,101150.34
2022-09-20T00:08:50.600Z,101152.41
2022-09-20T00:11:21.296Z,101154.47
2022-09-20T00:13:51.971Z,101154.19
2022-09-20T00:16:23.702Z,101160.75
2022-09-20T00:18:52.820Z,101149.00
2022-09-20T00:21:23.287Z,101158.84
2022-09-20T00:23:51.276Z,101149.00
2022-09-20T00:26:19.658Z,101146.22
2022-09-20T00:28:48.073Z,101149.94
2022-09-20T00:31:16.842Z,101157.31
2022-09-20T00:34:03.815Z,101155.72
2022-09-20T00:36:32.255Z,101152.91
2022-09-20T00:39:02.175Z,101151.63
2022-09-20T00:41:31.689Z,101150.13
2022-09-20T00:44:00.249Z,101162.66
2022-09-20T00:46:34.808Z,101154.03
2022-09-20T00:49:09.377Z,101157.78
2022-09-20T00:51:41.785Z,101162.78
2022-09-20T00:54:15.867Z,101146.09
2022-09-20T00:56:47.608Z,101162.09
2022-09-20T00:59:19.751Z,101165.47
2022-09-20T01:02:00.854Z,101162.31
2022-09-20T01:04:30.757Z,101166.84
2022-09-20T01:07:02.709Z,101171.94
2022-09-20T01:09:30.714Z,101172.41
2022-09-20T01:12:02.982Z,101168.38
2022-09-20T01:14:31.030Z,101170.75
2022-09-20T01:17:05.384Z,101176.31
2022-09-20T01:19:40.938Z,101171.88
2022-09-20T01:22:22.158Z,101170.75
2022-09-20T01:24:59.139Z,101174.72
2022-09-20T01:27:40.793Z,101171.63
2022-09-20T01:30:12.973Z,101179.47
2022-09-20T01:32:51.639Z,101163.88
2022-09-20T01:35:21.290Z,101167.69
2022-09-20T01:38:04.606Z,101168.16
2022-09-20T01:40:40.396Z,101174.41
2022-09-20T01:43:19.654Z,101172.66
2022-09-20T01:45:49.996Z,101168.66
2022-09-20T01:48:31.336Z,101176.72
2022-09-20T01:51:27.477Z,101136.44
2022-09-20T01:54:33.514Z,101174.06
2022-09-20T01:57:35.766Z,101174.69
2022-09-20T02:00:14.201Z,101173.53
2022-09-20T02:03:17.297Z,101175.75
2022-09-20T02:05:59.108Z,101179.19
2022-09-20T02:08:44.061Z,101179.19
2022-09-20T02:11:16.801Z,101184.97
2022-09-20T02:14:09.735Z,101176.97
2022-09-20T02:16:46.966Z,101181.16
2022-09-20T02:19:34.009Z,101177.94
2022-09-20T02:22:15.856Z,101183.81
2022-09-20T02:24:50.227Z,101164.25
2022-09-20T02:27:27.913Z,101144.03
2022-09-20T02:30:11.343Z,101196.97
2022-09-20T02:32:59.766Z,101195.66
2022-09-20T02:35:41.054Z,101197.25
2022-09-20T02:38:16.545Z,101194.38
2022-09-20T02:41:08.420Z,101167.50
2022-09-20T02:43:46.353Z,101188.59
2022-09-20T02:46:23.519Z,101196.31
2022-09-20T02:49:01.563Z,101194.63
2022-09-20T02:51:37.025Z,101195.97
2022-09-20T02:54:16.394Z,101207.47
2022-09-20T02:56:51.576Z,101169.66
2022-09-20T02:59:28.915Z,101210.19
2022-09-20T03:02:08.046Z,101177.53
2022-09-20T03:04:53.167Z,101204.91
2022-09-20T03:07:33.256Z,101199.72
2022-09-20T03:10:12.083Z,101203.38
2022-09-20T03:12:53.465Z,101197.44
2022-09-20T03:15:31.338Z,101200.06
2022-09-20T03:18:08.604Z,101196.84
2022-09-20T03:20:47.285Z,101206.06
2022-09-20T03:23:32.498Z,101200.56
2022-09-20T03:26:09.347Z,101214.03
2022-09-20T03:28:55.445Z,101213.44
2022-09-20T03:31:38.075Z,101212.00
2022-09-20T03:34:17.060Z,101216.25
2022-09-20T03:37:07.263Z,101210.13
2022-09-20T03:40:11.518Z,101208.81
2022-09-20T03:42:46.302Z,101210.75
2022-09-20T03:45:30.750Z,101213.22
2022-09-20T03:48:31.093Z,101215.84
2022-09-20T03:51:14.005Z,101211.47
2022-09-20T03:54:10.990Z,101210.34
2022-09-20T03:57:07.350Z,101214.63
2022-09-20T03:59:54.397Z,101220.84
2022-09-20T04:02:37.385Z,101219.78
2022-09-20T04:05:11.161Z,101226.63
2022-09-20T04:07:54.814Z,101220.72
2022-09-20T04:10:46.830Z,101221.78
2022-09-20T04:13:31.199Z,101217.03
2022-09-20T04:16:10.817Z,101224.84
2022-09-20T04:18:44.533Z,101225.88
2022-09-20T04:21:19.414Z,101228.44
2022-09-20T04:23:54.253Z,101222.09
2022-09-20T04:26:27.243Z,101236.09
2022-09-20T04:29:00.123Z,101222.78
2022-09-20T04:31:37.823Z,101229.75
2022-09-20T04:34:13.194Z,101235.72
2022-09-20T04:36:57.110Z,101229.69
2022-09-20T04:39:36.564Z,101235.09
2022-09-20T04:42:31.467Z,101237.16
2022-09-20T04:45:42.497Z,101230.31
2022-09-20T04:48:57.853Z,101247.88
2022-09-20T04:52:11.310Z,101259.13
2022-09-20T04:55:04.019Z,101264.31
2022-09-20T04:58:08.725Z,101269.66
2022-09-20T05:00:56.922Z,101264.56
2022-09-20T05:03:59.866Z,101264.25
2022-09-20T05:07:03.164Z,101266.03
2022-09-20T05:09:52.263Z,101268.41
2022-09-20T05:12:47.562Z,101267.50
2022-09-20T05:15:43.390Z,101263.59
2022-09-20T05:18:37.326Z,101271.09
2022-09-20T05:21:24.246Z,101278.50
2022-09-20T05:24:14.352Z,101282.38
2022-09-20T05:26:56.676Z,101272.66
2022-09-20T05:29:30.413Z,101279.63
2022-09-20T05:32:07.973Z,101280.25
2022-09-20T05:34:44.640Z,101289.63
2022-09-20T05:37:23.777Z,101288.91
2022-09-20T05:40:00.253Z,101300.69
2022-09-20T05:42:39.637Z,101299.03
2022-09-20T05:45:27.280Z,101301.13
2022-09-20T05:48:05.389Z,101299.88
2022-09-20T05:50:45.350Z,101305.22
2022-09-20T05:53:38.682Z,101307.78
2022-09-20T05:56:17.530Z,101295.94
2022-09-20T05:59:02.459Z,101310.31
2022-09-20T06:01:35.315Z,101320.31
2022-09-20T06:04:17.524Z,101321.31
2022-09-20T06:06:58.657Z,101320.53
2022-09-20T06:09:57.374Z,101326.66
2022-09-20T06:12:40.267Z,101325.41
2022-09-20T06:15:20.890Z,101330.25
2022-09-20T06:18:00.717Z,101326.34
2022-09-20T06:20:35.090Z,101329.97
2022-09-20T06:23:06.450Z,101329.78
2022-09-20T06:25:42.893Z,101322.59
2022-09-20T06:28:17.326Z,101325.84
2022-09-20T06:30:48.885Z,101324.91
2022-09-20T06:33:18.373Z,101315.88
2022-09-20T06:35:58.292Z,101317.75
2022-09-20T06:39:07.037Z,101329.72
2022-09-20T06:41:37.451Z,101332.22
2022-09-20T06:44:07.026Z,101329.88
2022-09-20T06:46:36.832Z,101330.53
2022-09-20T06:49:09.473Z,101341.84
2022-09-20T06:51:40.114Z,101343.44
2022-09-20T06:54:14.776Z,101344.53
2022-09-20T06:56:44.838Z,101345.38
2022-09-20T06:59:12.765Z,101341.09
2022-09-20T07:01:40.788Z,101353.69
2022-09-20T07:04:09.581Z,101345.72
2022-09-20T07:06:39.007Z,101354.09
2022-09-20T07:09:07.668Z,101355.97
2022-09-20T07:11:35.630Z,101357.03
2022-09-20T07:14:03.870Z,101358.25
2022-09-20T07:16:31.911Z,101353.72
2022-09-20T07:19:00.446Z,101348.66
2022-09-20T07:21:28.423Z,101363.94
2022-09-20T07:23:57.967Z,101362.03
2022-09-20T07:26:28.376Z,101361.78
2022-09-20T07:28:57.322Z,101373.09
2022-09-20T07:31:27.600Z,101374.94
2022-09-20T07:33:56.156Z,101372.66
2022-09-20T07:36:24.186Z,101364.47
2022-09-20T07:38:53.730Z,101380.13
2022-09-20T07:41:23.765Z,101375.19
2022-09-20T07:43:52.265Z,101383.25
2022-09-20T07:46:22.220Z,101385.09
2022-09-20T07:48:50.221Z,101382.78
2022-09-20T07:51:18.114Z,101385.59
2022-09-20T07:53:46.100Z,101396.19
2022-09-20T07:56:15.404Z,101398.19
2022-09-20T07:58:50.066Z,101391.75
2022-09-20T08:01:21.187Z,101393.91
2022-09-20T08:03:49.399Z,101397.50
2022-09-20T08:06:18.702Z,101399.66
2022-09-20T08:08:47.375Z,101398.59
2022-09-20T08:11:17.165Z,101409.47
2022-09-20T08:16:40.342Z,101410.31
2022-09-20T08:19:08.926Z,101416.91
2022-09-20T08:21:39.766Z,101411.47
2022-09-20T08:24:08.025Z,101412.66
2022-09-20T08:26:37.024Z,101407.59
2022-09-20T08:29:07.190Z,101413.38
2022-09-20T08:31:38.129Z,101416.09
2022-09-20T08:34:08.946Z,101417.44
2022-09-20T08:36:41.153Z,101419.78
2022-09-20T08:42:02.958Z,101431.22
2022-09-20T08:44:35.888Z,101424.97
2022-09-20T08:47:15.059Z,101445.69
2022-09-20T08:49:46.106Z,101438.97
2022-09-20T08:52:19.061Z,101439.34
2022-09-20T08:54:47.450Z,101440.09
2022-09-20T08:57:17.753Z,101435.09
2022-09-20T08:59:47.366Z,101435.09
2022-09-20T09:02:18.470Z,101443.78
2022-09-20T09:04:48.692Z,101439.34
2022-09-20T09:07:21.680Z,101444.88
2022-09-20T09:09:52.896Z,101451.91
2022-09-20T09:12:24.509Z,101449.06
2022-09-20T09:14:59.311Z,101450.28
2022-09-20T09:17:29.319Z,101455.81
2022-09-20T09:19:58.768Z,101454.88
2022-09-20T09:22:32.175Z,101450.50
2022-09-20T09:25:23.683Z,101460.44
2022-09-20T09:27:57.370Z,101455.94
2022-09-20T09:30:29.367Z,101454.41
2022-09-20T09:33:26.501Z,101453.84
2022-09-20T09:36:00.189Z,101458.06
2022-09-20T09:38:30.936Z,101453.81
2022-09-20T09:41:01.674Z,101459.59
2022-09-20T09:43:33.428Z,101460.66
2022-09-20T09:46:23.420Z,101462.97
2022-09-20T09:49:11.694Z,101448.53
2022-09-20T09:51:43.111Z,101438.75
2022-09-20T09:54:19.752Z,101462.53
2022-09-20T09:57:01.826Z,101463.84
2022-09-20T09:59:40.254Z,101460.09
2022-09-20T10:02:30.210Z,101458.84
2022-09-20T10:05:05.191Z,101456.72
2022-09-20T10:07:41.298Z,101464.03
2022-09-20T10:10:26.901Z,101451.25
2022-09-20T10:13:08.752Z,101450.81
2022-09-20T10:15:45.907Z,101444.16
2022-09-20T10:18:32.326Z,101439.88
2022-09-20T10:21:10.077Z,101440.69
2022-09-20T10:24:08.867Z,101434.28
2022-09-20T10:27:06.903Z,101437.50
2022-09-20T10:29:46.920Z,101431.72
2022-09-20T10:32:32.402Z,101440.50
2022-09-20T10:35:16.923Z,101434.16
2022-09-20T10:37:56.731Z,101431.91
2022-09-20T10:40:48.846Z,101432.13
2022-09-20T10:43:28.984Z,101425.69
2022-09-20T10:46:30.728Z,101434.09
2022-09-20T10:49:05.129Z,101439.22
2022-09-20T10:51:45.558Z,101432.72
2022-09-20T10:54:26.536Z,101434.16
2022-09-20T10:57:13.253Z,101434.63
2022-09-20T10:59:51.224Z,101430.63
2022-09-20T11:02:37.213Z,101424.38
2022-09-20T11:05:19.340Z,101429.94
2022-09-20T11:07:59.630Z,101427.56
2022-09-20T11:10:33.400Z,101426.22
2022-09-20T11:13:05.915Z,101433.06
2022-09-20T11:15:41.690Z,101426.47
2022-09-20T11:18:20.916Z,101430.69
2022-09-20T11:20:55.265Z,101432.13
2022-09-20T11:23:29.983Z,101434.22
2022-09-20T11:26:02.019Z,101438.19
2022-09-20T11:28:37.076Z,101427.91
2022-09-20T11:31:11.385Z,101436.81
2022-09-20T11:33:45.568Z,101434.75
2022-09-20T11:36:20.226Z,101447.81
2022-09-20T11:38:54.147Z,101446.94
2022-09-20T11:41:27.099Z,101435.94
2022-09-20T11:43:58.547Z,101426.63
2022-09-20T11:46:30.201Z,101434.00
2022-09-20T11:49:03.875Z,101435.53
2022-09-20T11:52:13.123Z,101435.63
2022-09-20T11:55:12.021Z,101434.19
2022-09-20T11:57:40.682Z,101436.75
2022-09-20T12:00:10.211Z,101428.94
2022-09-20T12:02:47.118Z,101437.19
2022-09-20T12:05:30.407Z,101441.75
2022-09-20T12:08:01.388Z,101429.38
2022-09-20T12:10:35.185Z,101439.78
2022-09-20T12:13:05.595Z,101438.88
2022-09-20T12:15:35.942Z,101433.66
2022-09-20T12:18:29.182Z,101436.81
2022-09-20T12:21:17.280Z,101437.00
2022-09-20T12:24:11.597Z,101436.25
2022-09-20T12:26:45.745Z,101428.59
2022-09-20T12:29:54.262Z,101437.09
2022-09-20T12:32:56.391Z,101433.13
2022-09-20T12:36:18.384Z,101441.16
2022-09-20T12:39:07.023Z,101431.75
2022-09-20T12:41:52.341Z,101441.38
2022-09-20T12:44:29.570Z,101444.19
2022-09-20T12:47:01.736Z,101437.03
2022-09-20T12:50:00.851Z,101443.56
2022-09-20T12:53:00.490Z,101439.75
2022-09-20T12:56:05.198Z,101437.31
2022-09-20T12:58:39.661Z,101429.47
2022-09-20T13:01:45.671Z,101441.81
2022-09-20T13:04:51.949Z,101440.94
2022-09-20T13:07:43.549Z,101419.34
2022-09-20T13:10:23.920Z,101433.06
2022-09-20T13:12:55.762Z,101442.28
2022-09-20T13:15:25.313Z,101431.91
2022-09-20T13:17:56.828Z,101436.22
2022-09-20T13:20:29.837Z,101438.16
2022-09-20T13:23:00.621Z,101443.94
2022-09-20T13:25:29.415Z,101458.44
2022-09-20T13:28:09.870Z,101465.78
2022-09-20T13:30:42.286Z,101469.06
2022-09-20T13:33:21.746Z,101473.13
2022-09-20T13:35:52.348Z,101471.31
2022-09-20T13:38:24.860Z,101473.66
2022-09-20T13:41:02.359Z,101475.88
2022-09-20T13:43:34.571Z,101486.25
2022-09-20T13:46:11.358Z,101482.22
2022-09-20T13:48:40.735Z,101486.91
2022-09-20T13:51:18.806Z,101487.72
2022-09-20T13:53:48.319Z,101491.97
2022-09-20T13:56:22.738Z,101481.03
2022-09-20T13:58:52.632Z,101484.69
2022-09-20T14:01:33.717Z,101466.44
2022-09-20T14:04:06.904Z,101474.03
2022-09-20T14:06:35.743Z,101480.75
2022-09-20T14:09:10.741Z,101472.75
2022-09-20T14:11:44.110Z,101480.81
2022-09-20T14:14:22.014Z,101469.81
2022-09-20T14:16:58.026Z,101473.66
2022-09-20T14:19:31.711Z,101483.59
2022-09-20T14:22:04.199Z,101486.81
2022-09-20T14:24:35.769Z,101489.41
2022-09-20T14:27:17.517Z,101482.16
2022-09-20T14:29:46.728Z,101486.25
2022-09-20T14:32:40.146Z,101489.53
2022-09-20T14:35:16.515Z,101479.63
2022-09-20T14:37:47.097Z,101475.50
2022-09-20T14:40:22.749Z,101480.00
2022-09-20T14:42:54.689Z,101480.84
2022-09-20T14:45:25.861Z,101477.44
2022-09-20T14:47:58.715Z,101473.53
2022-09-20T14:50:29.743Z,101479.41
2022-09-20T14:53:03.755Z,101477.44
2022-09-20T14:55:37.168Z,101484.66
2022-09-20T14:58:10.879Z,101482.91
2022-09-20T15:00:52.316Z,101482.63
2022-09-20T15:03:28.294Z,101468.84
2022-09-20T15:05:56.512Z,101484.56
2022-09-20T15:08:25.287Z,101481.94
2022-09-20T15:10:54.507Z,101482.81
2022-09-20T15:13:22.655Z,101481.22
2022-09-20T15:15:54.744Z,101479.47
2022-09-20T15:18:38.128Z,101478.53
2022-09-20T15:21:07.943Z,101475.09
2022-09-20T15:23:39.724Z,101467.91
2022-09-20T15:26:13.776Z,101476.19
2022-09-20T15:28:45.276Z,101468.88
2022-09-20T15:31:15.356Z,101476.16
2022-09-20T15:33:45.095Z,101487.84
2022-09-20T15:36:13.206Z,101483.75
2022-09-20T15:38:41.325Z,101485.47
2022-09-20T15:41:10.051Z,101487.16
2022-09-20T15:43:38.318Z,101483.06
2022-09-20T15:46:19.647Z,101482.97
2022-09-20T15:48:49.543Z,101479.41
2022-09-20T15:51:18.109Z,101483.75
2022-09-20T15:53:49.474Z,101489.16
2022-09-20T15:56:21.060Z,101481.78
2022-09-20T15:58:59.206Z,101481.16
2022-09-20T16:01:31.463Z,101480.13
2022-09-20T16:04:01.432Z,101491.34
2022-09-20T16:06:38.632Z,101479.00
2022-09-20T16:09:08.279Z,101489.72
2022-09-20T16:11:38.867Z,101496.66
2022-09-20T16:14:10.189Z,101499.09
2022-09-20T16:16:41.943Z,101492.69
2022-09-20T16:19:23.966Z,101501.28
2022-09-20T16:21:57.795Z,101499.16
2022-09-20T16:24:28.520Z,101502.63
2022-09-20T16:26:57.768Z,101507.50
2022-09-20T16:29:29.123Z,101508.00
2022-09-20T16:31:59.629Z,101509.47
2022-09-20T16:34:31.407Z,101509.72
2022-09-20T16:37:00.934Z,101508.47
2022-09-20T16:39:29.746Z,101512.34
2022-09-20T16:42:03.508Z,101516.88
2022-09-20T16:44:32.184Z,101522.97
2022-09-20T16:47:00.597Z,101523.16
2022-09-20T16:49:30.206Z,101519.72
2022-09-20T16:51:58.241Z,101525.44
2022-09-20T16:54:31.022Z,101529.84
2022-09-20T16:56:59.869Z,101537.94
2022-09-20T16:59:27.832Z,101537.53
2022-09-20T17:01:55.868Z,101541.75
2022-09-20T17:04:24.155Z,101540.25
2022-09-20T17:06:53.683Z,101541.94
2022-09-20T17:09:21.584Z,101539.50
2022-09-20T17:11:51.357Z,101550.41
2022-09-20T17:14:21.860Z,101547.25
2022-09-20T17:16:50.294Z,101553.00
2022-09-20T17:19:19.964Z,101557.56
2022-09-20T17:21:50.787Z,101556.53
2022-09-20T17:24:22.057Z,101554.28
2022-09-20T17:26:51.743Z,101562.66
2022-09-20T17:29:21.054Z,101567.16
2022-09-20T17:31:55.537Z,101577.38
2022-09-20T17:34:25.459Z,101573.75
2022-09-20T17:36:54.990Z,101580.00
2022-09-20T17:39:28.706Z,101583.53
2022-09-20T17:41:56.761Z,101588.66
2022-09-20T17:44:25.197Z,101592.00
2022-09-20T17:46:54.049Z,101591.91
2022-09-20T17:49:23.717Z,101599.47
2022-09-20T17:51:53.530Z,101594.78
2022-09-20T17:54:23.529Z,101600.88
2022-09-20T17:56:55.818Z,101594.63
2022-09-20T17:59:24.855Z,101608.13
2022-09-20T18:01:54.407Z,101612.03
2022-09-20T18:04:24.503Z,101606.88
2022-09-20T18:06:54.472Z,101612.19
2022-09-20T18:09:25.296Z,101613.28
2022-09-20T18:12:02.582Z,101617.25
2022-09-20T18:14:33.897Z,101623.88
2022-09-20T18:17:02.105Z,101626.50
2022-09-20T18:19:34.208Z,101638.53
2022-09-20T18:22:02.590Z,101636.56
2022-09-20T18:24:30.818Z,101631.66
2022-09-20T18:27:01.888Z,101631.28
2022-09-20T18:29:33.416Z,101635.22
2022-09-20T18:32:01.664Z,101635.94
2022-09-20T18:34:33.340Z,101640.91
2022-09-20T18:37:03.710Z,101639.03
2022-09-20T18:39:33.422Z,101648.56
2022-09-20T18:42:04.047Z,101648.03
2022-09-20T18:44:34.320Z,101646.50
2022-09-20T18:47:03.298Z,101654.25
2022-09-20T18:49:31.750Z,101664.09
2022-09-20T18:52:03.358Z,101656.94
2022-09-20T18:54:32.121Z,101661.34
2022-09-20T18:57:02.349Z,101661.81
2022-09-20T18:59:30.743Z,101671.22
2022-09-20T19:02:21.513Z,101674.78
2022-09-20T19:05:21.121Z,101675.28
2022-09-20T19:07:57.596Z,101673.94
2022-09-20T19:10:38.207Z,101674.13
2022-09-20T19:13:20.317Z,101676.44
2022-09-20T19:16:02.154Z,101682.06
2022-09-20T19:18:51.333Z,101678.88
2022-09-20T19:21:24.149Z,101691.63
2022-09-20T19:24:06.450Z,101691.66
2022-09-20T19:26:38.519Z,101692.38
2022-09-20T19:29:18.542Z,101690.50
2022-09-20T19:31:49.034Z,101695.84
2022-09-20T19:34:21.462Z,101703.03
2022-09-20T19:37:01.750Z,101705.94
2022-09-20T19:39:41.907Z,101705.66
2022-09-20T19:42:19.933Z,101701.00
2022-09-20T19:44:58.245Z,101714.34
2022-09-20T19:47:36.154Z,101718.50
2022-09-20T19:50:15.790Z,101724.78
2022-09-20T19:52:43.990Z,101725.94
2022-09-20T19:55:13.432Z,101726.94
2022-09-20T19:57:46.914Z,101729.78
2022-09-20T20:00:19.581Z,101722.97
2022-09-20T20:02:48.580Z,101734.41
2022-09-20T20:05:19.714Z,101736.91
2022-09-20T20:07:54.823Z,101729.81
2022-09-20T20:10:29.391Z,101738.19
2022-09-20T20:13:27.581Z,101736.63
2022-09-20T20:16:03.633Z,101733.97
2022-09-20T20:18:39.631Z,101735.81
2022-09-20T20:21:14.692Z,101739.44
2022-09-20T20:24:04.605Z,101739.59
2022-09-20T20:26:32.819Z,101741.66
2022-09-20T20:29:00.720Z,101744.78
2022-09-20T20:31:30.408Z,101739.31
2022-09-20T20:33:58.502Z,101748.72
2022-09-20T20:36:26.456Z,101745.22
2022-09-20T20:38:54.420Z,101747.84
2022-09-20T20:41:23.649Z,101748.16
2022-09-20T20:43:56.283Z,101742.91
2022-09-20T20:46:25.128Z,101747.59
2022-09-20T20:48:54.467Z,101755.91
2022-09-20T20:51:23.979Z,101752.47
2022-09-20T20:53:54.424Z,101755.81
2022-09-20T20:56:25.685Z,101752.84
2022-09-20T20:58:53.954Z,101756.00
2022-09-20T21:01:23.362Z,101766.72
2022-09-20T21:03:52.780Z,101768.66
2022-09-20T21:06:24.713Z,101753.59
2022-09-20T21:08:52.757Z,101764.81
2022-09-20T21:11:23.419Z,101769.75
2022-09-20T21:13:51.494Z,101774.34
2022-09-20T21:16:21.767Z,101780.88
2022-09-20T21:18:50.827Z,101766.00
2022-09-20T21:21:20.832Z,101774.91
2022-09-20T21:23:52.392Z,101769.16
2022-09-20T21:26:21.260Z,101776.75
2022-09-20T21:28:52.441Z,101777.59
2022-09-20T21:31:21.901Z,101779.84
2022-09-20T21:33:50.011Z,101782.34
2022-09-20T21:36:19.528Z,101774.31
2022-09-20T21:38:47.710Z,101779.09
2022-09-20T21:41:19.916Z,101788.03
2022-09-20T21:43:48.903Z,101789.34
2022-09-20T21:46:18.922Z,101785.78
2022-09-20T21:48:48.187Z,101800.09
2022-09-20T21:51:19.227Z,101794.03
2022-09-20T21:53:47.606Z,101801.13
2022-09-20T21:56:18.534Z,101805.47
2022-09-20T21:58:47.077Z,101806.78
2022-09-20T22:01:18.392Z,101799.44
2022-09-20T22:03:48.389Z,101808.63
2022-09-20T22:06:18.691Z,101808.34
2022-09-20T22:08:48.733Z,101806.84
2022-09-20T22:11:19.123Z,101802.81
2022-09-20T22:13:48.790Z,101811.06
2022-09-20T22:16:18.835Z,101814.50
2022-09-20T22:18:47.414Z,101814.06
2022-09-20T22:21:17.212Z,101809.00
2022-09-20T22:23:45.656Z,101811.66
2022-09-20T22:26:15.721Z,101818.22
2022-09-20T22:28:45.091Z,101813.69
2022-09-20T22:31:14.546Z,101817.19
2022-09-20T22:33:44.503Z,101807.38
2022-09-20T22:36:15.218Z,101819.44
2022-09-20T22:38:43.651Z,101820.22
2022-09-20T22:41:12.926Z,101820.69
2022-09-20T22:43:41.739Z,101818.16
2022-09-20T22:46:12.884Z,101819.34
2022-09-20T22:48:41.713Z,101820.28
2022-09-20T22:51:11.002Z,101818.69
2022-09-20T22:53:39.172Z,101822.03
2022-09-20T22:56:08.955Z,101819.91
2022-09-20T22:58:38.720Z,101818.03
2022-09-20T23:01:09.017Z,101821.16
2022-09-20T23:03:39.410Z,101818.00
2022-09-20T23:06:15.317Z,101819.03
2022-09-20T23:08:43.968Z,101815.34
2022-09-20T23:11:12.186Z,101816.59
2022-09-20T23:13:40.182Z,101821.94
2022-09-20T23:16:13.130Z,101821.16
2022-09-20T23:18:42.807Z,101821.59
2022-09-20T23:21:10.869Z,101830.06
2022-09-20T23:23:39.752Z,101824.38
2022-09-20T23:26:09.571Z,101826.56
2022-09-20T23:28:38.396Z,101819.53
2022-09-20T23:31:08.732Z,101831.06
2022-09-20T23:33:36.962Z,101822.09
2022-09-20T23:36:09.508Z,101819.69
2022-09-20T23:38:37.843Z,101822.34
2022-09-20T23:41:05.994Z,101832.50
2022-09-20T23:43:34.787Z,101837.56
2022-09-20T23:46:03.262Z,101828.78
2022-09-20T23:48:31.336Z,101826.28
2022-09-20T23:50:59.548Z,101829.94
2022-09-20T23:53:28.902Z,101835.63
2022-09-20T23:55:56.926Z,101833.03
2022-09-20T23:58:25.159Z,101838.97
